VOZ413 YPAD-YSSY
Flight info
| Callsign | VOZ413 |
|---|---|
| Flight time | N/A |
| Altitude | 39000 |
| Route | AVDEN H247 CULIN Y59 RIVET |
| Aircraft | B38M/M-SDE1FGHILORVWXY/HB1 |
Departure
| Time | 2025-09-05 21:57 |
|---|---|
| Airport | Adelaide International Airport (YPAD) |
Arrival
| Time | N/A |
|---|---|
| Airport | Sydney Kingsford Smith International Airport (YSSY) |
| Time | Latitude | Longitude | Altitude | Speed | Heading |
|---|---|---|---|---|---|
| 2025-09-05 21:32 | -34.93833 | 138.53996 | 29 ft | 0 kts | 318° |
| 2025-09-05 21:46 | -34.93866 | 138.54043 | 26 ft | 3 kts | 301° |
| 2025-09-05 21:46 | -34.93882 | 138.54083 | 26 ft | 1 kts | 288° |
| 2025-09-05 21:47 | -34.93883 | 138.54089 | 25 ft | 0 kts | 288° |
| 2025-09-05 21:49 | -34.93884 | 138.54086 | 25 ft | 2 kts | 266° |
| 2025-09-05 21:50 | -34.93962 | 138.53967 | 27 ft | 13 kts | 225° |
| 2025-09-05 21:50 | -34.94031 | 138.53889 | 23 ft | 14 kts | 187° |
| 2025-09-05 21:51 | -34.94263 | 138.53695 | 20 ft | 20 kts | 231° |
| 2025-09-05 21:51 | -34.94356 | 138.53560 | 19 ft | 22 kts | 230° |
| 2025-09-05 21:52 | -34.94441 | 138.53064 | 24 ft | 20 kts | 275° |
| 2025-09-05 21:52 | -34.94637 | 138.52822 | 27 ft | 22 kts | 218° |
| 2025-09-05 21:53 | -34.94913 | 138.52562 | 21 ft | 28 kts | 217° |
| 2025-09-05 21:53 | -34.95242 | 138.52251 | 23 ft | 31 kts | 217° |
| 2025-09-05 21:54 | -34.95512 | 138.51879 | 23 ft | 30 kts | 230° |
| 2025-09-05 21:54 | -34.95693 | 138.51643 | 18 ft | 15 kts | 199° |
| 2025-09-05 21:55 | -34.95835 | 138.51740 | 13 ft | 3 kts | 75° |
| 2025-09-05 21:55 | -34.95821 | 138.51764 | 14 ft | 4 kts | 56° |
| 2025-09-05 21:56 | -34.95291 | 138.52540 | 18 ft | 126 kts | 50° |
| 2025-09-05 21:56 | -34.93871 | 138.54560 | 987 ft | 167 kts | 50° |
| 2025-09-05 21:57 | -34.92338 | 138.56803 | 2436 ft | 188 kts | 47° |
| 2025-09-05 21:57 | -34.91701 | 138.60252 | 3523 ft | 249 kts | 103° |
| 2025-09-05 21:57 | -34.92563 | 138.62139 | 4413 ft | 259 kts | 126° |
| 2025-09-05 21:58 | -34.95781 | 138.67795 | 6967 ft | 289 kts | 121° |
| 2025-09-05 21:58 | -34.96824 | 138.69948 | 7911 ft | 293 kts | 120° |
| 2025-09-05 21:59 | -34.99905 | 138.76718 | 10342 ft | 318 kts | 119° |
| 2025-09-05 22:00 | -35.02162 | 138.81732 | 11250 ft | 357 kts | 119° |
| 2025-09-05 22:00 | -35.03392 | 138.84471 | 11672 ft | 377 kts | 119° |
| 2025-09-05 22:00 | -35.05665 | 138.90423 | 13023 ft | 392 kts | 100° |
| 2025-09-05 22:01 | -35.05584 | 139.00595 | 15150 ft | 407 kts | 84° |
| 2025-09-05 22:01 | -35.05415 | 139.04054 | 15865 ft | 411 kts | 83° |
| 2025-09-05 22:02 | -35.05048 | 139.11024 | 17348 ft | 417 kts | 84° |
| 2025-09-05 22:02 | -35.04660 | 139.18163 | 18641 ft | 427 kts | 84° |
| 2025-09-05 22:03 | -35.04261 | 139.25452 | 19771 ft | 435 kts | 84° |
| 2025-09-05 22:04 | -35.03637 | 139.36648 | 21447 ft | 447 kts | 84° |
| 2025-09-05 22:04 | -35.03203 | 139.44330 | 22549 ft | 454 kts | 85° |
| 2025-09-05 22:05 | -35.02763 | 139.52035 | 23606 ft | 462 kts | 85° |
| 2025-09-05 22:05 | -35.02305 | 139.59949 | 24347 ft | 474 kts | 85° |
| 2025-09-05 22:06 | -35.01101 | 139.80386 | 26254 ft | 495 kts | 85° |
| 2025-09-05 22:09 | -34.98692 | 140.19607 | 29318 ft | 534 kts | 86° |
| 2025-09-05 22:10 | -34.97860 | 140.52046 | 31269 ft | 560 kts | 93° |
| 2025-09-05 22:13 | -34.98113 | 140.95619 | 33853 ft | 582 kts | 93° |
| 2025-09-05 22:14 | -34.98203 | 141.30383 | 35863 ft | 588 kts | 94° |
| 2025-09-05 22:16 | -34.98183 | 141.70366 | 37878 ft | 590 kts | 94° |
| 2025-09-05 22:18 | -34.98030 | 142.10428 | 39293 ft | 590 kts | 94° |
| 2025-09-05 22:21 | -34.97704 | 142.55224 | 39305 ft | 587 kts | 94° |
| 2025-09-05 22:22 | -34.97337 | 142.89980 | 39303 ft | 585 kts | 94° |